sensor_id;sensor_type;location;lat;lon;timestamp;P1;durP1;ratioP1;P2;durP2;ratioP2
6089;SDS011;3073;42.660;23.316;2022-11-06T00:01:47;39.43;;;19.90;;
6089;SDS011;3073;42.660;23.316;2022-11-06T00:04:14;43.43;;;21.90;;
6089;SDS011;3073;42.660;23.316;2022-11-06T00:06:41;50.23;;;22.30;;
6089;SDS011;3073;42.660;23.316;2022-11-06T00:09:16;44.70;;;23.83;;
6089;SDS011;3073;42.660;23.316;2022-11-06T00:11:44;43.00;;;23.30;;
6089;SDS011;3073;42.660;23.316;2022-11-06T00:14:12;44.90;;;23.27;;
6089;SDS011;3073;42.660;23.316;2022-11-06T00:16:40;43.30;;;25.20;;
6089;SDS011;3073;42.660;23.316;2022-11-06T00:19:08;44.10;;;21.17;;
6089;SDS011;3073;42.660;23.316;2022-11-06T00:21:35;36.37;;;21.00;;
6089;SDS011;3073;42.660;23.316;2022-11-06T00:24:04;41.97;;;21.43;;
6089;SDS011;3073;42.660;23.316;2022-11-06T00:26:33;37.13;;;20.87;;
6089;SDS011;3073;42.660;23.316;2022-11-06T00:29:01;40.17;;;21.00;;
6089;SDS011;3073;42.660;23.316;2022-11-06T00:31:29;39.27;;;21.93;;
6089;SDS011;3073;42.660;23.316;2022-11-06T00:33:58;40.67;;;21.80;;
6089;SDS011;3073;42.660;23.316;2022-11-06T00:36:26;40.40;;;20.83;;
6089;SDS011;3073;42.660;23.316;2022-11-06T00:38:56;35.80;;;21.03;;
6089;SDS011;3073;42.660;23.316;2022-11-06T00:41:24;34.50;;;19.80;;
6089;SDS011;3073;42.660;23.316;2022-11-06T00:43:53;43.10;;;22.43;;
6089;SDS011;3073;42.660;23.316;2022-11-06T00:46:22;42.23;;;22.00;;
6089;SDS011;3073;42.660;23.316;2022-11-06T00:48:49;42.10;;;23.00;;
6089;SDS011;3073;42.660;23.316;2022-11-06T00:51:17;40.10;;;22.97;;
6089;SDS011;3073;42.660;23.316;2022-11-06T00:53:45;41.30;;;21.53;;
6089;SDS011;3073;42.660;23.316;2022-11-06T00:56:13;46.00;;;22.93;;
6089;SDS011;3073;42.660;23.316;2022-11-06T00:58:41;47.17;;;23.10;;
6089;SDS011;3073;42.660;23.316;2022-11-06T01:01:10;47.80;;;22.50;;
6089;SDS011;3073;42.660;23.316;2022-11-06T01:03:39;37.10;;;21.43;;
6089;SDS011;3073;42.660;23.316;2022-11-06T01:06:08;40.60;;;21.63;;
6089;SDS011;3073;42.660;23.316;2022-11-06T01:08:37;43.63;;;22.97;;
6089;SDS011;3073;42.660;23.316;2022-11-06T01:11:06;45.13;;;22.80;;
6089;SDS011;3073;42.660;23.316;2022-11-06T01:13:34;42.33;;;22.37;;
6089;SDS011;3073;42.660;23.316;2022-11-06T01:16:03;39.23;;;22.27;;
6089;SDS011;3073;42.660;23.316;2022-11-06T01:18:33;42.53;;;22.70;;
6089;SDS011;3073;42.660;23.316;2022-11-06T01:21:02;31.73;;;20.43;;
6089;SDS011;3073;42.660;23.316;2022-11-06T01:23:30;38.57;;;21.80;;
6089;SDS011;3073;42.660;23.316;2022-11-06T01:25:58;41.10;;;21.87;;
6089;SDS011;3073;42.660;23.316;2022-11-06T01:28:25;39.63;;;20.90;;
6089;SDS011;3073;42.660;23.316;2022-11-06T01:30:53;39.87;;;23.00;;
6089;SDS011;3073;42.660;23.316;2022-11-06T01:33:20;47.33;;;22.23;;
6089;SDS011;3073;42.660;23.316;2022-11-06T01:35:49;41.03;;;22.00;;
6089;SDS011;3073;42.660;23.316;2022-11-06T01:38:17;42.23;;;22.87;;
6089;SDS011;3073;42.660;23.316;2022-11-06T01:40:45;39.03;;;21.83;;
6089;SDS011;3073;42.660;23.316;2022-11-06T01:43:14;39.07;;;21.53;;
6089;SDS011;3073;42.660;23.316;2022-11-06T01:45:44;39.47;;;21.90;;
6089;SDS011;3073;42.660;23.316;2022-11-06T01:48:14;35.03;;;18.80;;
6089;SDS011;3073;42.660;23.316;2022-11-06T01:50:45;31.10;;;16.90;;
6089;SDS011;3073;42.660;23.316;2022-11-06T01:53:16;35.00;;;16.63;;
6089;SDS011;3073;42.660;23.316;2022-11-06T01:55:44;28.47;;;15.33;;
6089;SDS011;3073;42.660;23.316;2022-11-06T01:58:15;35.20;;;17.00;;
6089;SDS011;3073;42.660;23.316;2022-11-06T02:00:45;24.00;;;14.80;;
6089;SDS011;3073;42.660;23.316;2022-11-06T02:03:12;26.10;;;15.10;;
6089;SDS011;3073;42.660;23.316;2022-11-06T02:05:39;25.40;;;12.97;;
6089;SDS011;3073;42.660;23.316;2022-11-06T02:08:08;30.60;;;15.10;;
6089;SDS011;3073;42.660;23.316;2022-11-06T02:10:38;25.13;;;12.50;;
6089;SDS011;3073;42.660;23.316;2022-11-06T02:13:10;23.17;;;12.87;;
6089;SDS011;3073;42.660;23.316;2022-11-06T02:15:48;29.50;;;12.83;;
6089;SDS011;3073;42.660;23.316;2022-11-06T02:18:30;26.93;;;12.93;;
6089;SDS011;3073;42.660;23.316;2022-11-06T02:21:13;24.10;;;12.10;;
6089;SDS011;3073;42.660;23.316;2022-11-06T02:24:07;24.67;;;11.13;;
6089;SDS011;3073;42.660;23.316;2022-11-06T02:26:58;18.73;;;10.30;;
6089;SDS011;3073;42.660;23.316;2022-11-06T02:29:30;17.80;;;9.80;;
6089;SDS011;3073;42.660;23.316;2022-11-06T02:32:03;20.70;;;9.73;;
6089;SDS011;3073;42.660;23.316;2022-11-06T02:34:34;23.80;;;9.73;;
6089;SDS011;3073;42.660;23.316;2022-11-06T02:37:05;27.07;;;9.53;;
6089;SDS011;3073;42.660;23.316;2022-11-06T02:39:36;19.90;;;9.03;;
6089;SDS011;3073;42.660;23.316;2022-11-06T02:42:08;18.37;;;9.90;;
6089;SDS011;3073;42.660;23.316;2022-11-06T02:44:40;22.77;;;9.60;;
6089;SDS011;3073;42.660;23.316;2022-11-06T02:47:09;23.27;;;9.53;;
6089;SDS011;3073;42.660;23.316;2022-11-06T02:49:39;16.30;;;7.07;;
6089;SDS011;3073;42.660;23.316;2022-11-06T02:52:09;24.20;;;7.70;;
6089;SDS011;3073;42.660;23.316;2022-11-06T02:54:40;15.57;;;7.53;;
6089;SDS011;3073;42.660;23.316;2022-11-06T02:57:13;21.03;;;8.13;;
6089;SDS011;3073;42.660;23.316;2022-11-06T02:59:44;46.70;;;8.80;;
6089;SDS011;3073;42.660;23.316;2022-11-06T03:02:17;15.77;;;7.90;;
6089;SDS011;3073;42.660;23.316;2022-11-06T03:04:50;20.30;;;8.20;;
6089;SDS011;3073;42.660;23.316;2022-11-06T03:07:22;14.27;;;7.30;;
6089;SDS011;3073;42.660;23.316;2022-11-06T03:09:55;19.13;;;8.47;;
6089;SDS011;3073;42.660;23.316;2022-11-06T03:12:25;15.47;;;7.70;;
6089;SDS011;3073;42.660;23.316;2022-11-06T03:14:56;17.47;;;8.60;;
6089;SDS011;3073;42.660;23.316;2022-11-06T03:17:30;11.43;;;7.43;;
6089;SDS011;3073;42.660;23.316;2022-11-06T03:20:09;13.60;;;7.70;;
6089;SDS011;3073;42.660;23.316;2022-11-06T03:22:44;15.37;;;7.90;;
6089;SDS011;3073;42.660;23.316;2022-11-06T03:25:17;16.83;;;8.60;;
6089;SDS011;3073;42.660;23.316;2022-11-06T03:27:51;23.10;;;8.33;;
6089;SDS011;3073;42.660;23.316;2022-11-06T03:30:26;16.00;;;8.10;;
6089;SDS011;3073;42.660;23.316;2022-11-06T03:32:55;26.53;;;8.47;;
6089;SDS011;3073;42.660;23.316;2022-11-06T03:35:27;20.50;;;7.70;;
6089;SDS011;3073;42.660;23.316;2022-11-06T03:37:59;24.67;;;8.00;;
6089;SDS011;3073;42.660;23.316;2022-11-06T03:40:31;18.40;;;8.90;;
6089;SDS011;3073;42.660;23.316;2022-11-06T03:43:05;16.37;;;8.67;;
6089;SDS011;3073;42.660;23.316;2022-11-06T03:45:33;15.60;;;7.87;;
6089;SDS011;3073;42.660;23.316;2022-11-06T03:48:07;15.40;;;8.53;;
6089;SDS011;3073;42.660;23.316;2022-11-06T03:50:37;14.37;;;7.53;;
6089;SDS011;3073;42.660;23.316;2022-11-06T03:53:11;14.40;;;7.83;;
6089;SDS011;3073;42.660;23.316;2022-11-06T03:55:44;15.47;;;9.80;;
6089;SDS011;3073;42.660;23.316;2022-11-06T03:58:19;16.20;;;8.00;;
6089;SDS011;3073;42.660;23.316;2022-11-06T04:00:48;23.40;;;8.27;;
6089;SDS011;3073;42.660;23.316;2022-11-06T04:03:19;20.77;;;8.67;;
6089;SDS011;3073;42.660;23.316;2022-11-06T04:05:52;12.50;;;8.20;;
6089;SDS011;3073;42.660;23.316;2022-11-06T04:08:24;16.87;;;8.47;;
6089;SDS011;3073;42.660;23.316;2022-11-06T04:11:11;16.10;;;7.23;;
6089;SDS011;3073;42.660;23.316;2022-11-06T04:14:02;21.33;;;10.03;;
6089;SDS011;3073;42.660;23.316;2022-11-06T04:16:32;14.07;;;8.47;;
6089;SDS011;3073;42.660;23.316;2022-11-06T04:19:01;20.97;;;8.80;;
6089;SDS011;3073;42.660;23.316;2022-11-06T04:21:31;25.03;;;8.73;;
6089;SDS011;3073;42.660;23.316;2022-11-06T04:24:12;12.50;;;8.23;;
6089;SDS011;3073;42.660;23.316;2022-11-06T04:27:10;31.33;;;9.10;;
6089;SDS011;3073;42.660;23.316;2022-11-06T04:29:59;14.50;;;8.30;;
6089;SDS011;3073;42.660;23.316;2022-11-06T04:32:34;18.33;;;9.10;;
6089;SDS011;3073;42.660;23.316;2022-11-06T04:35:10;17.50;;;9.43;;
6089;SDS011;3073;42.660;23.316;2022-11-06T04:37:42;21.30;;;9.23;;
6089;SDS011;3073;42.660;23.316;2022-11-06T04:40:18;17.13;;;8.83;;
6089;SDS011;3073;42.660;23.316;2022-11-06T04:42:52;13.63;;;8.30;;
6089;SDS011;3073;42.660;23.316;2022-11-06T04:45:24;23.43;;;9.83;;
6089;SDS011;3073;42.660;23.316;2022-11-06T04:47:55;25.00;;;10.57;;
6089;SDS011;3073;42.660;23.316;2022-11-06T04:50:23;16.00;;;9.27;;
6089;SDS011;3073;42.660;23.316;2022-11-06T04:52:53;11.87;;;8.77;;
6089;SDS011;3073;42.660;23.316;2022-11-06T04:55:21;18.90;;;9.90;;
6089;SDS011;3073;42.660;23.316;2022-11-06T04:57:48;20.40;;;10.90;;
6089;SDS011;3073;42.660;23.316;2022-11-06T05:00:16;16.77;;;10.60;;
6089;SDS011;3073;42.660;23.316;2022-11-06T05:02:45;17.80;;;9.67;;
6089;SDS011;3073;42.660;23.316;2022-11-06T05:05:12;16.43;;;11.30;;
6089;SDS011;3073;42.660;23.316;2022-11-06T05:07:39;15.07;;;9.60;;
6089;SDS011;3073;42.660;23.316;2022-11-06T05:10:06;19.70;;;9.50;;
6089;SDS011;3073;42.660;23.316;2022-11-06T05:12:34;21.63;;;11.13;;
6089;SDS011;3073;42.660;23.316;2022-11-06T05:15:01;22.40;;;11.10;;
6089;SDS011;3073;42.660;23.316;2022-11-06T05:17:28;15.07;;;10.33;;
6089;SDS011;3073;42.660;23.316;2022-11-06T05:19:57;21.57;;;11.33;;
6089;SDS011;3073;42.660;23.316;2022-11-06T05:22:23;22.07;;;11.20;;
6089;SDS011;3073;42.660;23.316;2022-11-06T05:25:08;19.00;;;11.23;;
6089;SDS011;3073;42.660;23.316;2022-11-06T05:27:34;26.03;;;12.03;;
6089;SDS011;3073;42.660;23.316;2022-11-06T05:30:01;22.40;;;10.60;;
6089;SDS011;3073;42.660;23.316;2022-11-06T05:32:28;18.50;;;11.63;;
6089;SDS011;3073;42.660;23.316;2022-11-06T05:34:57;23.47;;;11.63;;
6089;SDS011;3073;42.660;23.316;2022-11-06T05:37:25;24.53;;;12.37;;
6089;SDS011;3073;42.660;23.316;2022-11-06T05:39:52;17.20;;;11.00;;
6089;SDS011;3073;42.660;23.316;2022-11-06T05:42:19;19.30;;;11.90;;
6089;SDS011;3073;42.660;23.316;2022-11-06T05:44:46;18.00;;;11.70;;
6089;SDS011;3073;42.660;23.316;2022-11-06T05:47:13;16.63;;;11.60;;
6089;SDS011;3073;42.660;23.316;2022-11-06T05:49:40;23.90;;;12.20;;
6089;SDS011;3073;42.660;23.316;2022-11-06T05:52:08;23.60;;;11.97;;
6089;SDS011;3073;42.660;23.316;2022-11-06T05:54:35;24.77;;;13.27;;
6089;SDS011;3073;42.660;23.316;2022-11-06T05:57:02;19.90;;;11.90;;
6089;SDS011;3073;42.660;23.316;2022-11-06T05:59:29;22.40;;;11.67;;
6089;SDS011;3073;42.660;23.316;2022-11-06T06:01:56;18.53;;;12.10;;
6089;SDS011;3073;42.660;23.316;2022-11-06T06:04:24;20.80;;;12.23;;
6089;SDS011;3073;42.660;23.316;2022-11-06T06:06:50;24.63;;;12.20;;
6089;SDS011;3073;42.660;23.316;2022-11-06T06:09:19;23.20;;;11.40;;
6089;SDS011;3073;42.660;23.316;2022-11-06T06:11:49;22.20;;;12.00;;
6089;SDS011;3073;42.660;23.316;2022-11-06T06:14:16;19.70;;;11.90;;
6089;SDS011;3073;42.660;23.316;2022-11-06T06:16:42;19.93;;;11.43;;
6089;SDS011;3073;42.660;23.316;2022-11-06T06:19:10;21.50;;;11.40;;
6089;SDS011;3073;42.660;23.316;2022-11-06T06:21:37;24.10;;;12.07;;
6089;SDS011;3073;42.660;23.316;2022-11-06T06:24:04;17.60;;;11.23;;
6089;SDS011;3073;42.660;23.316;2022-11-06T06:26:33;25.77;;;12.57;;
6089;SDS011;3073;42.660;23.316;2022-11-06T06:29:00;27.43;;;13.20;;
6089;SDS011;3073;42.660;23.316;2022-11-06T06:31:27;28.90;;;12.80;;
6089;SDS011;3073;42.660;23.316;2022-11-06T06:33:55;26.20;;;12.27;;
6089;SDS011;3073;42.660;23.316;2022-11-06T06:36:22;18.07;;;11.07;;
6089;SDS011;3073;42.660;23.316;2022-11-06T06:38:49;23.17;;;12.57;;
6089;SDS011;3073;42.660;23.316;2022-11-06T06:41:16;25.83;;;13.00;;
6089;SDS011;3073;42.660;23.316;2022-11-06T06:43:47;19.53;;;11.17;;
6089;SDS011;3073;42.660;23.316;2022-11-06T06:46:14;22.13;;;12.37;;
6089;SDS011;3073;42.660;23.316;2022-11-06T06:48:41;23.77;;;12.50;;
6089;SDS011;3073;42.660;23.316;2022-11-06T06:51:08;24.73;;;12.40;;
6089;SDS011;3073;42.660;23.316;2022-11-06T06:53:35;20.20;;;12.27;;
6089;SDS011;3073;42.660;23.316;2022-11-06T06:56:02;33.10;;;13.43;;
6089;SDS011;3073;42.660;23.316;2022-11-06T06:58:29;24.93;;;13.23;;
6089;SDS011;3073;42.660;23.316;2022-11-06T07:00:59;25.70;;;12.50;;
6089;SDS011;3073;42.660;23.316;2022-11-06T07:03:27;25.53;;;11.80;;
6089;SDS011;3073;42.660;23.316;2022-11-06T07:05:55;31.03;;;12.97;;
6089;SDS011;3073;42.660;23.316;2022-11-06T07:08:22;22.20;;;12.60;;
6089;SDS011;3073;42.660;23.316;2022-11-06T07:10:49;22.07;;;12.20;;
6089;SDS011;3073;42.660;23.316;2022-11-06T07:13:16;28.50;;;12.07;;
6089;SDS011;3073;42.660;23.316;2022-11-06T07:15:43;25.03;;;12.87;;
6089;SDS011;3073;42.660;23.316;2022-11-06T07:18:11;17.93;;;11.23;;
6089;SDS011;3073;42.660;23.316;2022-11-06T07:20:40;31.20;;;13.30;;
6089;SDS011;3073;42.660;23.316;2022-11-06T07:23:07;17.23;;;10.80;;
6089;SDS011;3073;42.660;23.316;2022-11-06T07:25:34;24.93;;;13.17;;
6089;SDS011;3073;42.660;23.316;2022-11-06T07:28:03;37.47;;;11.90;;
6089;SDS011;3073;42.660;23.316;2022-11-06T07:30:31;22.03;;;12.60;;
6089;SDS011;3073;42.660;23.316;2022-11-06T07:32:59;29.40;;;12.20;;
6089;SDS011;3073;42.660;23.316;2022-11-06T07:35:31;24.87;;;12.10;;
6089;SDS011;3073;42.660;23.316;2022-11-06T07:38:01;22.77;;;12.80;;
6089;SDS011;3073;42.660;23.316;2022-11-06T07:40:31;23.30;;;13.67;;
6089;SDS011;3073;42.660;23.316;2022-11-06T07:43:01;21.33;;;12.50;;
6089;SDS011;3073;42.660;23.316;2022-11-06T07:45:29;22.87;;;13.67;;
6089;SDS011;3073;42.660;23.316;2022-11-06T07:47:56;25.50;;;12.77;;
6089;SDS011;3073;42.660;23.316;2022-11-06T07:50:23;28.73;;;13.00;;
6089;SDS011;3073;42.660;23.316;2022-11-06T07:52:53;30.10;;;12.80;;
6089;SDS011;3073;42.660;23.316;2022-11-06T07:55:20;19.70;;;12.60;;
6089;SDS011;3073;42.660;23.316;2022-11-06T07:57:47;38.93;;;14.73;;
6089;SDS011;3073;42.660;23.316;2022-11-06T08:00:14;25.33;;;14.60;;
6089;SDS011;3073;42.660;23.316;2022-11-06T08:02:41;21.20;;;13.73;;
6089;SDS011;3073;42.660;23.316;2022-11-06T08:05:08;22.90;;;13.33;;
6089;SDS011;3073;42.660;23.316;2022-11-06T08:07:35;25.00;;;14.97;;
6089;SDS011;3073;42.660;23.316;2022-11-06T08:10:04;29.30;;;15.50;;
6089;SDS011;3073;42.660;23.316;2022-11-06T08:12:32;22.53;;;14.40;;
6089;SDS011;3073;42.660;23.316;2022-11-06T08:14:59;25.27;;;14.33;;
6089;SDS011;3073;42.660;23.316;2022-11-06T08:17:28;29.23;;;13.50;;
6089;SDS011;3073;42.660;23.316;2022-11-06T08:19:56;25.43;;;14.83;;
6089;SDS011;3073;42.660;23.316;2022-11-06T08:22:23;28.27;;;15.37;;
6089;SDS011;3073;42.660;23.316;2022-11-06T08:24:50;37.20;;;15.43;;
6089;SDS011;3073;42.660;23.316;2022-11-06T08:27:19;28.87;;;14.97;;
6089;SDS011;3073;42.660;23.316;2022-11-06T08:29:46;23.73;;;15.17;;
6089;SDS011;3073;42.660;23.316;2022-11-06T08:32:13;22.93;;;16.17;;
6089;SDS011;3073;42.660;23.316;2022-11-06T08:34:42;26.43;;;16.30;;
6089;SDS011;3073;42.660;23.316;2022-11-06T08:37:09;28.80;;;16.90;;
6089;SDS011;3073;42.660;23.316;2022-11-06T08:39:36;32.40;;;18.43;;
6089;SDS011;3073;42.660;23.316;2022-11-06T08:42:03;40.07;;;19.13;;
6089;SDS011;3073;42.660;23.316;2022-11-06T08:44:34;33.10;;;17.33;;
6089;SDS011;3073;42.660;23.316;2022-11-06T08:47:01;29.93;;;17.37;;
6089;SDS011;3073;42.660;23.316;2022-11-06T08:49:28;34.00;;;18.10;;
6089;SDS011;3073;42.660;23.316;2022-11-06T08:51:56;35.40;;;18.47;;
6089;SDS011;3073;42.660;23.316;2022-11-06T08:54:23;29.10;;;17.63;;
6089;SDS011;3073;42.660;23.316;2022-11-06T08:56:50;30.43;;;19.30;;
6089;SDS011;3073;42.660;23.316;2022-11-06T08:59:17;39.63;;;18.40;;
6089;SDS011;3073;42.660;23.316;2022-11-06T09:01:47;31.40;;;19.83;;
6089;SDS011;3073;42.660;23.316;2022-11-06T09:04:14;36.37;;;21.03;;
6089;SDS011;3073;42.660;23.316;2022-11-06T09:06:41;30.30;;;19.83;;
6089;SDS011;3073;42.660;23.316;2022-11-06T09:09:08;29.87;;;19.67;;
6089;SDS011;3073;42.660;23.316;2022-11-06T09:11:35;45.20;;;22.87;;
6089;SDS011;3073;42.660;23.316;2022-11-06T09:14:02;27.97;;;20.77;;
6089;SDS011;3073;42.660;23.316;2022-11-06T09:16:30;41.63;;;22.33;;
6089;SDS011;3073;42.660;23.316;2022-11-06T09:18:58;44.57;;;22.47;;
6089;SDS011;3073;42.660;23.316;2022-11-06T09:21:25;35.70;;;21.97;;
6089;SDS011;3073;42.660;23.316;2022-11-06T09:23:52;37.53;;;23.50;;
6089;SDS011;3073;42.660;23.316;2022-11-06T09:26:19;40.77;;;21.83;;
6089;SDS011;3073;42.660;23.316;2022-11-06T09:28:46;38.30;;;21.77;;
6089;SDS011;3073;42.660;23.316;2022-11-06T09:31:13;32.50;;;20.77;;
6089;SDS011;3073;42.660;23.316;2022-11-06T09:33:40;31.73;;;21.57;;
6089;SDS011;3073;42.660;23.316;2022-11-06T09:36:09;32.90;;;23.67;;
6089;SDS011;3073;42.660;23.316;2022-11-06T09:38:35;35.77;;;22.40;;
6089;SDS011;3073;42.660;23.316;2022-11-06T09:41:02;36.37;;;22.57;;
6089;SDS011;3073;42.660;23.316;2022-11-06T09:43:32;40.43;;;23.53;;
6089;SDS011;3073;42.660;23.316;2022-11-06T09:46:12;42.63;;;23.50;;
6089;SDS011;3073;42.660;23.316;2022-11-06T09:48:48;44.63;;;22.83;;
6089;SDS011;3073;42.660;23.316;2022-11-06T09:51:24;38.17;;;23.37;;
6089;SDS011;3073;42.660;23.316;2022-11-06T09:53:58;32.63;;;22.07;;
6089;SDS011;3073;42.660;23.316;2022-11-06T09:56:32;40.93;;;23.17;;
6089;SDS011;3073;42.660;23.316;2022-11-06T09:59:03;29.27;;;20.93;;
6089;SDS011;3073;42.660;23.316;2022-11-06T10:01:35;33.03;;;21.43;;
6089;SDS011;3073;42.660;23.316;2022-11-06T10:04:09;29.47;;;21.20;;
6089;SDS011;3073;42.660;23.316;2022-11-06T10:06:48;30.67;;;20.30;;
6089;SDS011;3073;42.660;23.316;2022-11-06T10:09:18;35.23;;;19.20;;
6089;SDS011;3073;42.660;23.316;2022-11-06T10:11:53;31.50;;;19.53;;
6089;SDS011;3073;42.660;23.316;2022-11-06T10:14:35;22.17;;;17.60;;
6089;SDS011;3073;42.660;23.316;2022-11-06T10:17:14;24.70;;;16.87;;
6089;SDS011;3073;42.660;23.316;2022-11-06T10:19:54;27.53;;;17.67;;
6089;SDS011;3073;42.660;23.316;2022-11-06T10:22:24;27.33;;;16.67;;
6089;SDS011;3073;42.660;23.316;2022-11-06T10:25:04;29.80;;;17.07;;
6089;SDS011;3073;42.660;23.316;2022-11-06T10:27:46;22.40;;;16.80;;
6089;SDS011;3073;42.660;23.316;2022-11-06T10:30:22;27.60;;;16.93;;
6089;SDS011;3073;42.660;23.316;2022-11-06T10:35:44;25.33;;;17.73;;
6089;SDS011;3073;42.660;23.316;2022-11-06T10:38:16;25.03;;;17.90;;
6089;SDS011;3073;42.660;23.316;2022-11-06T10:40:47;27.20;;;18.67;;
6089;SDS011;3073;42.660;23.316;2022-11-06T10:43:19;22.87;;;17.10;;
6089;SDS011;3073;42.660;23.316;2022-11-06T10:45:54;32.27;;;18.47;;
6089;SDS011;3073;42.660;23.316;2022-11-06T10:48:27;27.10;;;15.10;;
6089;SDS011;3073;42.660;23.316;2022-11-06T10:51:00;21.37;;;14.97;;
6089;SDS011;3073;42.660;23.316;2022-11-06T10:53:40;20.27;;;13.20;;
6089;SDS011;3073;42.660;23.316;2022-11-06T10:56:19;20.27;;;12.53;;
6089;SDS011;3073;42.660;23.316;2022-11-06T10:58:59;22.73;;;11.50;;
6089;SDS011;3073;42.660;23.316;2022-11-06T11:01:27;15.37;;;11.07;;
6089;SDS011;3073;42.660;23.316;2022-11-06T11:03:55;12.67;;;8.90;;
6089;SDS011;3073;42.660;23.316;2022-11-06T11:06:22;9.60;;;6.83;;
6089;SDS011;3073;42.660;23.316;2022-11-06T11:08:50;8.33;;;6.27;;
6089;SDS011;3073;42.660;23.316;2022-11-06T11:11:19;12.40;;;7.17;;
6089;SDS011;3073;42.660;23.316;2022-11-06T11:13:49;9.70;;;7.00;;
6089;SDS011;3073;42.660;23.316;2022-11-06T11:16:37;8.37;;;6.57;;
6089;SDS011;3073;42.660;23.316;2022-11-06T11:19:23;10.73;;;7.50;;
6089;SDS011;3073;42.660;23.316;2022-11-06T11:21:53;10.30;;;7.00;;
6089;SDS011;3073;42.660;23.316;2022-11-06T11:24:23;15.80;;;7.83;;
6089;SDS011;3073;42.660;23.316;2022-11-06T11:26:51;9.17;;;7.23;;
6089;SDS011;3073;42.660;23.316;2022-11-06T11:29:21;16.53;;;7.40;;
6089;SDS011;3073;42.660;23.316;2022-11-06T11:31:52;10.43;;;7.60;;
6089;SDS011;3073;42.660;23.316;2022-11-06T11:34:22;14.00;;;8.17;;
6089;SDS011;3073;42.660;23.316;2022-11-06T11:36:58;10.50;;;7.70;;
6089;SDS011;3073;42.660;23.316;2022-11-06T11:39:29;13.20;;;8.20;;
6089;SDS011;3073;42.660;23.316;2022-11-06T11:47:40;14.50;;;9.70;;
6089;SDS011;3073;42.660;23.316;2022-11-06T11:50:25;14.60;;;10.20;;
6089;SDS011;3073;42.660;23.316;2022-11-06T11:52:55;12.70;;;9.80;;
6089;SDS011;3073;42.660;23.316;2022-11-06T11:55:26;15.53;;;11.27;;
6089;SDS011;3073;42.660;23.316;2022-11-06T11:57:55;20.43;;;12.10;;
6089;SDS011;3073;42.660;23.316;2022-11-06T12:00:25;16.20;;;11.73;;
6089;SDS011;3073;42.660;23.316;2022-11-06T12:02:54;17.10;;;11.93;;
6089;SDS011;3073;42.660;23.316;2022-11-06T12:05:29;17.00;;;12.20;;
6089;SDS011;3073;42.660;23.316;2022-11-06T12:07:59;20.37;;;13.07;;
6089;SDS011;3073;42.660;23.316;2022-11-06T12:10:29;20.00;;;12.57;;
6089;SDS011;3073;42.660;23.316;2022-11-06T12:12:59;20.80;;;14.47;;
6089;SDS011;3073;42.660;23.316;2022-11-06T12:15:38;20.40;;;13.77;;
6089;SDS011;3073;42.660;23.316;2022-11-06T12:18:10;17.70;;;12.53;;
6089;SDS011;3073;42.660;23.316;2022-11-06T12:20:41;21.17;;;12.53;;
6089;SDS011;3073;42.660;23.316;2022-11-06T12:23:17;15.40;;;11.40;;
6089;SDS011;3073;42.660;23.316;2022-11-06T12:25:54;15.33;;;10.50;;
6089;SDS011;3073;42.660;23.316;2022-11-06T12:28:24;18.07;;;11.77;;
6089;SDS011;3073;42.660;23.316;2022-11-06T12:30:58;15.57;;;10.30;;
6089;SDS011;3073;42.660;23.316;2022-11-06T12:33:29;17.37;;;11.23;;
6089;SDS011;3073;42.660;23.316;2022-11-06T12:35:58;17.67;;;11.10;;
6089;SDS011;3073;42.660;23.316;2022-11-06T12:38:30;16.80;;;11.00;;
6089;SDS011;3073;42.660;23.316;2022-11-06T12:41:05;14.93;;;10.00;;
6089;SDS011;3073;42.660;23.316;2022-11-06T12:43:38;14.10;;;9.60;;
6089;SDS011;3073;42.660;23.316;2022-11-06T12:46:14;12.13;;;8.70;;
6089;SDS011;3073;42.660;23.316;2022-11-06T12:52:16;12.37;;;9.23;;
6089;SDS011;3073;42.660;23.316;2022-11-06T12:55:00;14.70;;;9.03;;
6089;SDS011;3073;42.660;23.316;2022-11-06T12:57:39;12.57;;;9.17;;
6089;SDS011;3073;42.660;23.316;2022-11-06T13:00:16;13.00;;;9.63;;
6089;SDS011;3073;42.660;23.316;2022-11-06T13:03:02;20.00;;;10.20;;
6089;SDS011;3073;42.660;23.316;2022-11-06T13:05:46;15.73;;;8.70;;
6089;SDS011;3073;42.660;23.316;2022-11-06T13:08:24;12.23;;;9.80;;
6089;SDS011;3073;42.660;23.316;2022-11-06T13:11:04;12.93;;;8.80;;
6089;SDS011;3073;42.660;23.316;2022-11-06T13:13:49;12.67;;;9.00;;
6089;SDS011;3073;42.660;23.316;2022-11-06T13:16:26;12.70;;;8.33;;
6089;SDS011;3073;42.660;23.316;2022-11-06T13:19:00;11.47;;;8.00;;
6089;SDS011;3073;42.660;23.316;2022-11-06T13:21:49;13.33;;;7.90;;
6089;SDS011;3073;42.660;23.316;2022-11-06T13:24:27;11.40;;;8.30;;
6089;SDS011;3073;42.660;23.316;2022-11-06T13:27:02;14.07;;;9.13;;
6089;SDS011;3073;42.660;23.316;2022-11-06T13:29:40;11.40;;;7.90;;
6089;SDS011;3073;42.660;23.316;2022-11-06T13:32:09;11.20;;;7.50;;
6089;SDS011;3073;42.660;23.316;2022-11-06T13:34:40;15.37;;;8.30;;
6089;SDS011;3073;42.660;23.316;2022-11-06T13:37:13;15.80;;;8.43;;
6089;SDS011;3073;42.660;23.316;2022-11-06T13:39:45;11.43;;;7.87;;
6089;SDS011;3073;42.660;23.316;2022-11-06T13:42:20;14.70;;;7.23;;
6089;SDS011;3073;42.660;23.316;2022-11-06T13:44:52;14.50;;;8.67;;
6089;SDS011;3073;42.660;23.316;2022-11-06T13:47:24;14.53;;;8.40;;
6089;SDS011;3073;42.660;23.316;2022-11-06T13:50:00;11.93;;;8.50;;
6089;SDS011;3073;42.660;23.316;2022-11-06T13:52:33;11.87;;;7.07;;
6089;SDS011;3073;42.660;23.316;2022-11-06T13:55:09;15.10;;;7.30;;
6089;SDS011;3073;42.660;23.316;2022-11-06T14:00:43;14.90;;;7.13;;
6089;SDS011;3073;42.660;23.316;2022-11-06T14:03:33;13.20;;;7.53;;
6089;SDS011;3073;42.660;23.316;2022-11-06T14:06:13;10.17;;;7.53;;
6089;SDS011;3073;42.660;23.316;2022-11-06T14:08:45;11.40;;;7.30;;
6089;SDS011;3073;42.660;23.316;2022-11-06T14:11:15;13.03;;;7.43;;
6089;SDS011;3073;42.660;23.316;2022-11-06T14:13:55;11.57;;;7.07;;
6089;SDS011;3073;42.660;23.316;2022-11-06T14:16:29;9.97;;;6.43;;
6089;SDS011;3073;42.660;23.316;2022-11-06T14:19:02;10.87;;;7.17;;
6089;SDS011;3073;42.660;23.316;2022-11-06T14:27:05;9.47;;;5.60;;
6089;SDS011;3073;42.660;23.316;2022-11-06T14:38:15;9.67;;;6.73;;
6089;SDS011;3073;42.660;23.316;2022-11-06T14:40:56;10.90;;;6.77;;
6089;SDS011;3073;42.660;23.316;2022-11-06T14:43:24;15.23;;;6.90;;
6089;SDS011;3073;42.660;23.316;2022-11-06T14:45:54;8.60;;;6.03;;
6089;SDS011;3073;42.660;23.316;2022-11-06T14:48:26;7.40;;;4.77;;
6089;SDS011;3073;42.660;23.316;2022-11-06T14:50:54;5.97;;;5.30;;
6089;SDS011;3073;42.660;23.316;2022-11-06T14:53:24;6.93;;;4.80;;
6089;SDS011;3073;42.660;23.316;2022-11-06T14:55:55;8.43;;;5.80;;
6089;SDS011;3073;42.660;23.316;2022-11-06T14:58:24;6.40;;;4.50;;
6089;SDS011;3073;42.660;23.316;2022-11-06T15:00:57;8.17;;;5.47;;
6089;SDS011;3073;42.660;23.316;2022-11-06T15:03:29;10.23;;;4.80;;
6089;SDS011;3073;42.660;23.316;2022-11-06T15:06:03;10.20;;;5.10;;
6089;SDS011;3073;42.660;23.316;2022-11-06T15:08:56;7.23;;;4.67;;
6089;SDS011;3073;42.660;23.316;2022-11-06T15:17:17;9.10;;;5.57;;
6089;SDS011;3073;42.660;23.316;2022-11-06T15:19:49;8.43;;;6.10;;
6089;SDS011;3073;42.660;23.316;2022-11-06T15:22:26;9.13;;;4.87;;
6089;SDS011;3073;42.660;23.316;2022-11-06T15:24:58;9.23;;;5.23;;
6089;SDS011;3073;42.660;23.316;2022-11-06T15:27:30;6.40;;;4.87;;
6089;SDS011;3073;42.660;23.316;2022-11-06T15:30:01;10.93;;;6.07;;
6089;SDS011;3073;42.660;23.316;2022-11-06T15:32:30;7.70;;;5.33;;
6089;SDS011;3073;42.660;23.316;2022-11-06T15:35:04;9.67;;;5.50;;
6089;SDS011;3073;42.660;23.316;2022-11-06T15:37:34;13.07;;;5.97;;
6089;SDS011;3073;42.660;23.316;2022-11-06T15:40:19;8.03;;;5.70;;